Time;durP1;ratioP1;P1;durP2;ratioP2;P2;SDS_P1;SDS_P2;PMS_P1;PMS_P2;Temp;Humidity;BMP_temperature;BMP_pressure;BME280_temperature;BME280_humidity;BME280_pressure;Samples;Min_cycle;Max_cycle;Signal;HPM_P1;HPM_P2
2023/12/12 00:02:25;;;;;;;14.33;7.53;;;;;;;;;;6209963;23;20171;-87
2023/12/12 00:04:52;;;;;;;9.20;6.30;;;;;;;;;;6209891;23;20175;-85
2023/12/12 00:07:22;;;;;;;13.67;6.80;;;;;;;;;;6211297;23;20209;-86
2023/12/12 00:09:50;;;;;;;13.40;7.27;;;;;;;;;;6211454;23;20171;-86
2023/12/12 00:12:17;;;;;;;15.87;8.23;;;;;;;;;;6209381;23;20190;-87
2023/12/12 00:14:46;;;;;;;13.63;8.03;;;;;;;;;;6210269;23;20238;-87
2023/12/12 00:17:16;;;;;;;14.23;7.77;;;;;;;;;;6209841;23;20214;-86
2023/12/12 00:19:46;;;;;;;17.13;8.03;;;;;;;;;;6211363;23;20164;-87
2023/12/12 00:22:16;;;;;;;16.57;8.00;;;;;;;;;;6211134;23;20688;-86
2023/12/12 00:24:43;;;;;;;14.63;6.73;;;;;;;;;;6209139;23;20187;-86
2023/12/12 00:27:10;;;;;;;16.83;8.53;;;;;;;;;;6209115;23;20175;-86
2023/12/12 00:29:40;;;;;;;11.53;8.03;;;;;;;;;;6214315;23;20179;-86
2023/12/12 00:32:09;;;;;;;15.40;7.57;;;;;;;;;;6214048;23;20218;-85
2023/12/12 00:34:37;;;;;;;10.50;6.93;;;;;;;;;;6214762;23;20198;-87
2023/12/12 00:37:12;;;;;;;14.77;7.93;;;;;;;;;;6212993;23;20171;-87
2023/12/12 00:39:41;;;;;;;11.93;7.23;;;;;;;;;;6214252;23;20175;-87
2023/12/12 00:42:08;;;;;;;14.50;7.97;;;;;;;;;;6214880;23;20190;-87
2023/12/12 00:44:36;;;;;;;12.63;7.60;;;;;;;;;;6221582;23;20172;-85
2023/12/12 00:47:13;;;;;;;15.20;6.67;;;;;;;;;;6221597;23;20518;-83
2023/12/12 00:49:40;;;;;;;16.10;8.83;;;;;;;;;;6222278;23;20178;-85
2023/12/12 00:52:08;;;;;;;15.03;8.10;;;;;;;;;;6223577;23;20364;-87
2023/12/12 00:54:36;;;;;;;16.20;9.03;;;;;;;;;;6214880;23;20168;-84
2023/12/12 00:57:14;;;;;;;17.83;9.13;;;;;;;;;;6213833;23;20326;-87
2023/12/12 00:59:42;;;;;;;13.23;8.03;;;;;;;;;;6214509;23;20926;-86
2023/12/12 01:02:10;;;;;;;19.67;8.73;;;;;;;;;;6212544;23;20167;-87
2023/12/12 01:04:41;;;;;;;15.57;8.10;;;;;;;;;;6213311;23;20178;-86
2023/12/12 01:07:13;;;;;;;12.70;7.67;;;;;;;;;;6212088;23;20704;-86
2023/12/12 01:09:41;;;;;;;15.30;7.27;;;;;;;;;;6211865;23;20190;-87
2023/12/12 01:12:16;;;;;;;15.53;9.30;;;;;;;;;;6212201;23;20223;-86
2023/12/12 01:14:46;;;;;;;13.90;8.50;;;;;;;;;;6212301;23;20162;-86
2023/12/12 01:17:21;;;;;;;12.63;8.10;;;;;;;;;;6211421;23;20165;-86
2023/12/12 01:19:49;;;;;;;17.27;7.60;;;;;;;;;;6211903;23;20716;-87
2023/12/12 01:22:16;;;;;;;14.53;8.47;;;;;;;;;;6212933;23;20705;-85
2023/12/12 01:24:51;;;;;;;15.00;9.47;;;;;;;;;;6211036;23;20254;-87
2023/12/12 01:27:20;;;;;;;18.73;9.63;;;;;;;;;;6210439;23;20171;-87
2023/12/12 01:29:47;;;;;;;15.10;8.13;;;;;;;;;;6210940;23;20171;-88
2023/12/12 01:32:23;;;;;;;16.60;9.03;;;;;;;;;;6209107;23;20977;-88
2023/12/12 01:34:53;;;;;;;15.50;8.10;;;;;;;;;;6210235;23;20167;-87
2023/12/12 01:37:23;;;;;;;17.63;9.53;;;;;;;;;;6209950;23;20221;-87
2023/12/12 01:39:53;;;;;;;13.03;7.80;;;;;;;;;;6210939;23;20466;-85
2023/12/12 01:42:21;;;;;;;16.67;8.33;;;;;;;;;;6209964;23;20767;-86
2023/12/12 01:44:48;;;;;;;15.93;8.30;;;;;;;;;;6209182;23;20180;-88
2023/12/12 01:47:18;;;;;;;20.20;8.20;;;;;;;;;;6208471;23;20175;-86
2023/12/12 01:49:47;;;;;;;14.23;8.43;;;;;;;;;;6209433;23;20175;-85
2023/12/12 01:52:16;;;;;;;19.30;8.87;;;;;;;;;;6208693;23;20179;-87
2023/12/12 01:54:47;;;;;;;15.77;8.23;;;;;;;;;;6207811;23;20174;-86
2023/12/12 01:57:16;;;;;;;16.03;7.47;;;;;;;;;;6208104;23;20645;-87
2023/12/12 01:59:45;;;;;;;17.40;9.03;;;;;;;;;;6210042;23;20189;-86
2023/12/12 02:02:13;;;;;;;15.10;9.80;;;;;;;;;;6208205;23;20171;-87
2023/12/12 02:04:41;;;;;;;18.70;9.20;;;;;;;;;;6209264;23;20172;-87
2023/12/12 02:07:14;;;;;;;20.73;10.47;;;;;;;;;;6209691;23;20167;-86
2023/12/12 02:09:42;;;;;;;16.47;10.07;;;;;;;;;;6208463;23;20741;-87
2023/12/12 02:12:10;;;;;;;18.47;9.23;;;;;;;;;;6208476;23;20168;-86
2023/12/12 02:14:38;;;;;;;17.20;9.30;;;;;;;;;;6209655;23;20171;-86
2023/12/12 02:17:06;;;;;;;21.47;9.77;;;;;;;;;;6208223;23;20267;-86
2023/12/12 02:19:36;;;;;;;23.43;11.13;;;;;;;;;;6208895;23;20172;-85
2023/12/12 02:22:11;;;;;;;20.50;11.57;;;;;;;;;;6208628;23;20199;-84
2023/12/12 02:24:39;;;;;;;27.23;12.67;;;;;;;;;;6208889;23;20269;-87
2023/12/12 02:27:10;;;;;;;22.33;12.80;;;;;;;;;;6207479;23;20607;-87
2023/12/12 02:29:37;;;;;;;21.83;10.77;;;;;;;;;;6209121;23;20206;-87
2023/12/12 02:32:05;;;;;;;25.77;12.20;;;;;;;;;;6208979;23;20233;-87
2023/12/12 02:34:32;;;;;;;23.37;11.60;;;;;;;;;;6212772;23;20171;-87
2023/12/12 02:37:01;;;;;;;21.77;12.10;;;;;;;;;;6215927;23;20179;-88
2023/12/12 02:39:32;;;;;;;23.40;12.30;;;;;;;;;;6230094;23;20164;-86
2023/12/12 02:41:59;;;;;;;22.83;12.10;;;;;;;;;;6222388;23;20198;-86
2023/12/12 02:44:30;;;;;;;20.83;10.90;;;;;;;;;;6211436;23;20167;-86
2023/12/12 02:46:58;;;;;;;28.60;10.53;;;;;;;;;;6182471;23;20225;-85
2023/12/12 02:49:25;;;;;;;21.03;10.73;;;;;;;;;;6211493;23;20192;-86
2023/12/12 02:51:53;;;;;;;18.30;10.80;;;;;;;;;;6215860;23;20171;-86
2023/12/12 02:54:20;;;;;;;25.43;12.43;;;;;;;;;;6215392;23;20209;-85
2023/12/12 02:56:50;;;;;;;21.37;10.23;;;;;;;;;;6215254;23;20172;-86
2023/12/12 02:59:20;;;;;;;22.20;10.43;;;;;;;;;;6217171;23;20167;-87
2023/12/12 03:01:49;;;;;;;28.50;13.20;;;;;;;;;;6217567;23;20182;-87
2023/12/12 03:04:16;;;;;;;25.90;14.00;;;;;;;;;;6217361;23;20171;-87
2023/12/12 03:06:44;;;;;;;26.43;11.97;;;;;;;;;;6217737;23;20171;-86
2023/12/12 03:09:14;;;;;;;29.13;12.70;;;;;;;;;;6218304;23;20275;-86
2023/12/12 03:11:42;;;;;;;28.73;14.03;;;;;;;;;;6216125;23;20167;-86
2023/12/12 03:14:11;;;;;;;31.00;14.27;;;;;;;;;;6211999;23;20664;-87
2023/12/12 03:16:51;;;;;;;;;;;;;;;;;;;;;
2023/12/12 03:19:19;;;;;;;29.93;13.83;;;;;;;;;;6211741;23;20167;-86
2023/12/12 03:21:46;;;;;;;25.47;13.47;;;;;;;;;;6210438;23;20593;-86
2023/12/12 03:24:14;;;;;;;26.77;12.30;;;;;;;;;;6208701;23;20214;-87
2023/12/12 03:26:42;;;;;;;27.90;12.20;;;;;;;;;;6209778;23;20720;-86
2023/12/12 03:29:11;;;;;;;19.07;10.87;;;;;;;;;;6210601;23;20194;-85
2023/12/12 03:31:40;;;;;;;20.97;8.93;;;;;;;;;;6209924;23;20785;-87
2023/12/12 03:34:08;;;;;;;17.60;8.53;;;;;;;;;;6210395;23;20195;-86
2023/12/12 03:36:36;;;;;;;16.60;7.93;;;;;;;;;;6209308;23;20229;-86
2023/12/12 03:39:04;;;;;;;13.23;7.60;;;;;;;;;;6209751;23;20485;-87
2023/12/12 03:41:31;;;;;;;6.37;5.50;;;;;;;;;;6210696;23;20194;-88
2023/12/12 03:44:01;;;;;;;6.73;4.93;;;;;;;;;;6210769;23;20523;-88
2023/12/12 03:46:30;;;;;;;11.40;4.27;;;;;;;;;;6208247;23;20229;-87
2023/12/12 03:48:58;;;;;;;6.60;3.97;;;;;;;;;;6209334;23;20684;-86
2023/12/12 03:51:25;;;;;;;30.37;13.17;;;;;;;;;;6209305;23;20598;-86
2023/12/12 03:53:52;;;;;;;26.00;11.50;;;;;;;;;;6212370;23;20229;-86
2023/12/12 03:56:20;;;;;;;27.03;11.77;;;;;;;;;;6208778;23;20257;-87
2023/12/12 03:58:48;;;;;;;23.37;10.07;;;;;;;;;;6183998;23;20164;-86
2023/12/12 04:01:16;;;;;;;20.77;10.40;;;;;;;;;;6209492;23;20160;-86
2023/12/12 04:03:47;;;;;;;19.40;9.43;;;;;;;;;;6211051;23;20526;-87
2023/12/12 04:06:17;;;;;;;16.83;8.53;;;;;;;;;;6212216;23;20168;-87
2023/12/12 04:08:45;;;;;;;17.77;9.07;;;;;;;;;;6211891;23;20210;-86
2023/12/12 04:11:12;;;;;;;17.47;9.70;;;;;;;;;;6211886;23;20177;-86
2023/12/12 04:13:40;;;;;;;14.10;9.17;;;;;;;;;;6210291;23;20240;-87
2023/12/12 04:16:09;;;;;;;13.97;8.87;;;;;;;;;;6209283;23;20164;-86
2023/12/12 04:18:36;;;;;;;14.07;8.83;;;;;;;;;;6210318;23;20174;-87
2023/12/12 04:21:07;;;;;;;17.53;8.80;;;;;;;;;;6210665;23;20163;-87
2023/12/12 04:23:42;;;;;;;15.13;8.60;;;;;;;;;;6210233;23;20288;-86
2023/12/12 04:26:10;;;;;;;27.10;9.63;;;;;;;;;;6212193;23;20534;-88
2023/12/12 04:28:38;;;;;;;18.50;8.60;;;;;;;;;;6215137;23;20198;-86
2023/12/12 04:31:06;;;;;;;14.33;10.10;;;;;;;;;;6215288;23;20164;-87
2023/12/12 04:33:33;;;;;;;16.57;8.57;;;;;;;;;;6214788;23;20202;-86
2023/12/12 04:36:02;;;;;;;19.43;8.90;;;;;;;;;;6214747;23;20221;-88
2023/12/12 04:38:31;;;;;;;17.10;7.33;;;;;;;;;;6214739;23;20191;-86
2023/12/12 04:41:03;;;;;;;17.40;8.20;;;;;;;;;;6214315;23;20174;-88
2023/12/12 04:43:32;;;;;;;10.57;7.87;;;;;;;;;;6214443;23;20175;-86
2023/12/12 04:46:00;;;;;;;16.80;8.27;;;;;;;;;;6213299;23;20404;-86
2023/12/12 04:48:28;;;;;;;9.80;6.60;;;;;;;;;;6212793;23;20251;-89
2023/12/12 04:50:56;;;;;;;13.47;7.77;;;;;;;;;;6212437;23;20247;-87
2023/12/12 04:53:25;;;;;;;17.00;7.77;;;;;;;;;;6213556;23;20178;-87
2023/12/12 04:55:55;;;;;;;11.67;7.53;;;;;;;;;;6212492;23;20695;-87
2023/12/12 04:58:25;;;;;;;11.73;8.03;;;;;;;;;;6213208;23;20172;-86
2023/12/12 05:00:53;;;;;;;13.97;7.90;;;;;;;;;;6214620;23;20464;-86
2023/12/12 05:03:22;;;;;;;18.63;8.47;;;;;;;;;;6212586;23;20665;-87
2023/12/12 05:05:52;;;;;;;15.13;6.97;;;;;;;;;;6212960;23;20194;-86
2023/12/12 05:08:23;;;;;;;13.53;7.17;;;;;;;;;;6214525;23;20167;-87
2023/12/12 05:10:52;;;;;;;15.00;6.47;;;;;;;;;;6214906;23;20179;-87
2023/12/12 05:13:21;;;;;;;11.77;6.47;;;;;;;;;;6216158;23;20222;-87
2023/12/12 05:15:49;;;;;;;14.70;6.93;;;;;;;;;;6232625;22;20172;-86
2023/12/12 05:18:36;;;;;;;11.77;7.47;;;;;;;;;;6236200;22;20171;-86
2023/12/12 05:21:04;;;;;;;12.30;7.43;;;;;;;;;;6227852;23;20178;-87
2023/12/12 05:23:41;;;;;;;16.70;6.53;;;;;;;;;;6214479;23;20692;-85
2023/12/12 05:26:09;;;;;;;11.07;6.93;;;;;;;;;;6210100;23;20253;-85
2023/12/12 05:28:40;;;;;;;14.00;8.13;;;;;;;;;;6211711;23;20214;-87
2023/12/12 05:33:55;;;;;;;12.50;7.17;;;;;;;;;;6208444;23;20183;-87
2023/12/12 05:36:26;;;;;;;15.93;8.33;;;;;;;;;;6214243;23;20175;-86
2023/12/12 05:38:57;;;;;;;17.70;8.47;;;;;;;;;;6215264;23;20247;-87
2023/12/12 05:41:25;;;;;;;15.43;7.83;;;;;;;;;;6215942;23;20198;-86
2023/12/12 05:43:57;;;;;;;14.83;8.00;;;;;;;;;;6215024;23;20167;-87
2023/12/12 05:46:25;;;;;;;12.20;7.33;;;;;;;;;;6214082;23;20197;-87
2023/12/12 05:48:53;;;;;;;18.27;7.17;;;;;;;;;;6215840;23;20171;-87
2023/12/12 05:51:24;;;;;;;11.93;7.90;;;;;;;;;;6214372;23;20568;-88
2023/12/12 05:53:51;;;;;;;17.73;9.07;;;;;;;;;;6214363;23;20164;-87
2023/12/12 05:56:19;;;;;;;11.93;7.80;;;;;;;;;;6213925;23;20707;-87
2023/12/12 05:58:45;;;;;;;12.57;7.33;;;;;;;;;;6214101;23;20576;-88
2023/12/12 06:01:18;;;;;;;13.23;8.10;;;;;;;;;;6214160;23;20179;-85
2023/12/12 06:03:45;;;;;;;9.47;7.10;;;;;;;;;;6211799;23;20527;-86
2023/12/12 06:06:14;;;;;;;10.20;7.80;;;;;;;;;;6209564;23;20169;-87
2023/12/12 06:08:42;;;;;;;17.60;8.80;;;;;;;;;;6212833;23;20168;-86
2023/12/12 06:11:10;;;;;;;19.87;8.47;;;;;;;;;;6212274;23;20704;-87
2023/12/12 06:13:38;;;;;;;19.10;8.70;;;;;;;;;;6211422;23;20179;-86
2023/12/12 06:16:08;;;;;;;16.73;8.30;;;;;;;;;;6212718;23;20171;-86
2023/12/12 06:18:38;;;;;;;12.23;7.20;;;;;;;;;;6213594;23;20168;-87
2023/12/12 06:21:07;;;;;;;17.47;7.57;;;;;;;;;;6213057;23;20227;-88
2023/12/12 06:23:35;;;;;;;18.00;7.77;;;;;;;;;;6212461;23;20195;-88
2023/12/12 06:26:04;;;;;;;15.23;8.30;;;;;;;;;;6212810;23;20687;-87
2023/12/12 06:28:36;;;;;;;12.07;7.07;;;;;;;;;;6212677;23;20620;-89
2023/12/12 06:31:03;;;;;;;13.93;6.67;;;;;;;;;;6210327;23;20708;-87
2023/12/12 06:33:34;;;;;;;15.27;8.03;;;;;;;;;;6208755;23;20175;-88
2023/12/12 06:36:04;;;;;;;13.13;7.43;;;;;;;;;;6207884;23;20178;-89
2023/12/12 06:38:31;;;;;;;12.50;8.00;;;;;;;;;;6209013;23;20242;-87
2023/12/12 06:41:00;;;;;;;12.33;7.33;;;;;;;;;;6206834;23;20175;-89
2023/12/12 06:43:28;;;;;;;18.97;7.17;;;;;;;;;;6207915;23;20191;-86
2023/12/12 06:46:22;;;;;;;;;;;;;;;;;;;;;
2023/12/12 06:48:50;;;;;;;16.53;8.07;;;;;;;;;;6208732;23;20173;-88
2023/12/12 06:51:20;;;;;;;16.27;8.07;;;;;;;;;;6208633;23;20561;-87
2023/12/12 06:53:49;;;;;;;14.63;8.73;;;;;;;;;;6208476;23;20168;-87
2023/12/12 06:56:18;;;;;;;14.80;8.20;;;;;;;;;;6207792;23;20171;-88
2023/12/12 06:58:46;;;;;;;13.07;7.83;;;;;;;;;;6208683;23;20171;-87
2023/12/12 07:01:15;;;;;;;16.17;8.53;;;;;;;;;;6209374;23;20175;-86
2023/12/12 07:03:42;;;;;;;14.93;8.47;;;;;;;;;;6208523;23;20171;-89
2023/12/12 07:06:10;;;;;;;14.33;7.93;;;;;;;;;;6207251;23;20167;-87
2023/12/12 07:08:40;;;;;;;12.47;8.33;;;;;;;;;;6208048;23;20171;-85
2023/12/12 07:11:14;;;;;;;15.10;8.57;;;;;;;;;;6208751;23;20683;-87
2023/12/12 07:13:43;;;;;;;23.33;7.77;;;;;;;;;;6212356;23;20222;-87
2023/12/12 07:16:15;;;;;;;16.03;8.77;;;;;;;;;;6214686;23;20629;-86
2023/12/12 07:18:42;;;;;;;19.40;8.43;;;;;;;;;;6212596;23;20159;-89
2023/12/12 07:21:11;;;;;;;22.83;8.63;;;;;;;;;;6212455;23;20163;-86
2023/12/12 07:23:40;;;;;;;17.60;8.73;;;;;;;;;;6214643;23;20380;-89
2023/12/12 07:26:07;;;;;;;13.23;9.03;;;;;;;;;;6216012;23;20167;-87
2023/12/12 07:29:25;;;;;;;17.93;8.67;;;;;;;;;;6226848;23;20167;-85
2023/12/12 07:32:00;;;;;;;16.27;8.30;;;;;;;;;;6212991;23;20173;-87
2023/12/12 07:34:34;;;;;;;18.30;9.37;;;;;;;;;;6212068;23;20170;-86
2023/12/12 07:39:59;;;;;;;12.63;8.90;;;;;;;;;;6200301;23;20423;-87
2023/12/12 07:45:15;;;;;;;15.13;8.43;;;;;;;;;;6209926;23;20236;-85
2023/12/12 07:47:47;;;;;;;14.93;8.90;;;;;;;;;;6213497;23;20175;-86
2023/12/12 07:50:34;;;;;;;19.73;9.00;;;;;;;;;;6209324;23;20222;-87
2023/12/12 07:55:51;;;;;;;18.70;10.30;;;;;;;;;;6172285;23;20185;-85
2023/12/12 07:58:23;;;;;;;24.30;10.93;;;;;;;;;;6221428;23;20167;-88
2023/12/12 08:00:54;;;;;;;28.63;9.87;;;;;;;;;;6226100;23;20190;-87
2023/12/12 08:03:26;;;;;;;21.77;10.93;;;;;;;;;;6235237;23;20274;-87
2023/12/12 08:05:55;;;;;;;23.53;12.20;;;;;;;;;;6228467;23;20250;-86
2023/12/12 08:08:36;;;;;;;;;;;;;;;;;;;;;
2023/12/12 08:11:14;;;;;;;23.33;11.57;;;;;;;;;;6222389;23;20199;-85
2023/12/12 08:13:43;;;;;;;22.63;11.67;;;;;;;;;;6221023;23;20270;-87
2023/12/12 08:16:15;;;;;;;26.30;11.80;;;;;;;;;;6215851;23;20180;-86
2023/12/12 08:18:43;;;;;;;25.10;11.50;;;;;;;;;;6214351;23;20174;-85
2023/12/12 08:21:17;;;;;;;18.40;11.03;;;;;;;;;;6214727;23;20239;-86
2023/12/12 08:23:48;;;;;;;22.27;11.60;;;;;;;;;;6214587;23;20202;-88
2023/12/12 08:26:19;;;;;;;22.10;9.53;;;;;;;;;;6213494;23;20238;-86
2023/12/12 08:28:48;;;;;;;16.40;8.23;;;;;;;;;;6214150;23;20235;-87
2023/12/12 08:31:23;;;;;;;16.80;7.90;;;;;;;;;;6213015;23;20662;-88
2023/12/12 08:33:55;;;;;;;20.57;9.57;;;;;;;;;;6211199;23;20195;-87
2023/12/12 08:36:25;;;;;;;3.63;2.17;;;;;;;;;;6209951;23;20877;-87
2023/12/12 08:38:58;;;;;;;1.50;0.80;;;;;;;;;;6204519;23;20194;-89
2023/12/12 08:41:31;;;;;;;0.87;0.87;;;;;;;;;;6213938;23;20206;-87
2023/12/12 08:44:03;;;;;;;3.90;1.30;;;;;;;;;;6212955;23;20203;-89
2023/12/12 08:46:38;;;;;;;1.60;0.80;;;;;;;;;;6212284;23;20273;-87
2023/12/12 08:49:08;;;;;;;3.43;1.80;;;;;;;;;;6209827;23;20282;-88
2023/12/12 08:51:40;;;;;;;7.37;4.60;;;;;;;;;;6208818;23;20813;-88
2023/12/12 08:54:10;;;;;;;19.50;6.13;;;;;;;;;;6208958;23;20199;-90
2023/12/12 08:56:42;;;;;;;10.13;5.73;;;;;;;;;;6207683;23;20268;-87
2023/12/12 08:59:10;;;;;;;6.33;2.33;;;;;;;;;;6208194;23;20285;-87
2023/12/12 09:01:38;;;;;;;2.03;1.40;;;;;;;;;;6207352;23;20196;-87
2023/12/12 09:04:07;;;;;;;15.33;7.33;;;;;;;;;;6208104;23;20195;-87
2023/12/12 09:06:40;;;;;;;9.73;7.37;;;;;;;;;;6207282;23;20198;-88
2023/12/12 09:09:08;;;;;;;16.07;7.10;;;;;;;;;;6209673;23;20254;-88
2023/12/12 09:11:37;;;;;;;13.47;5.97;;;;;;;;;;6209100;23;20251;-86
2023/12/12 09:14:07;;;;;;;7.77;5.33;;;;;;;;;;6209297;23;20255;-87
2023/12/12 09:16:36;;;;;;;12.93;5.90;;;;;;;;;;6209887;23;20767;-87
2023/12/12 09:19:04;;;;;;;8.20;4.50;;;;;;;;;;6210967;23;20195;-86
2023/12/12 09:21:38;;;;;;;4.30;2.93;;;;;;;;;;6212294;23;20242;-87
2023/12/12 09:24:08;;;;;;;2.50;2.30;;;;;;;;;;6212588;23;20249;-88
2023/12/12 09:26:39;;;;;;;2.00;1.90;;;;;;;;;;6210891;23;20198;-86
2023/12/12 09:29:10;;;;;;;1.17;1.17;;;;;;;;;;6212647;23;20191;-86
2023/12/12 09:31:38;;;;;;;2.70;1.10;;;;;;;;;;6213278;23;20290;-89
2023/12/12 09:34:08;;;;;;;1.50;1.40;;;;;;;;;;6210871;23;20221;-88
2023/12/12 09:36:36;;;;;;;1.73;1.20;;;;;;;;;;6208271;23;20199;-87
2023/12/12 09:39:07;;;;;;;1.83;1.30;;;;;;;;;;6208757;23;20193;-87
2023/12/12 09:41:34;;;;;;;2.27;1.77;;;;;;;;;;6207350;23;20198;-87
2023/12/12 09:44:06;;;;;;;1.67;1.03;;;;;;;;;;6209140;23;20205;-87
2023/12/12 09:46:35;;;;;;;1.20;1.10;;;;;;;;;;6207807;23;20286;-87
2023/12/12 09:49:06;;;;;;;1.27;1.17;;;;;;;;;;6208408;23;20191;-89
2023/12/12 09:51:33;;;;;;;1.10;1.00;;;;;;;;;;6211428;23;20204;-87
2023/12/12 09:54:06;;;;;;;6.13;2.17;;;;;;;;;;6211922;23;20193;-86
2023/12/12 09:56:34;;;;;;;2.67;1.50;;;;;;;;;;6210448;23;20517;-88
2023/12/12 09:59:06;;;;;;;1.40;1.30;;;;;;;;;;6211875;23;20202;-87
2023/12/12 10:01:38;;;;;;;2.33;0.77;;;;;;;;;;6211971;23;20608;-88
2023/12/12 10:04:07;;;;;;;1.23;0.90;;;;;;;;;;6209841;23;20195;-87
2023/12/12 10:06:38;;;;;;;0.77;0.73;;;;;;;;;;6206759;23;20639;-88
2023/12/12 10:09:31;;;;;;;0.63;0.63;;;;;;;;;;6210321;23;20207;-88
2023/12/12 10:12:02;;;;;;;1.67;1.33;;;;;;;;;;6205759;23;20269;-88
2023/12/12 10:14:39;;;;;;;3.10;1.20;;;;;;;;;;6205073;23;20269;-87
2023/12/12 10:17:10;;;;;;;1.33;0.93;;;;;;;;;;6207005;23;20223;-86
2023/12/12 10:19:38;;;;;;;1.27;1.17;;;;;;;;;;6211014;23;20571;-86
2023/12/12 10:22:08;;;;;;;2.80;1.00;;;;;;;;;;6209286;23;20226;-87
2023/12/12 10:24:40;;;;;;;1.37;1.27;;;;;;;;;;6209368;23;20198;-87
2023/12/12 10:27:09;;;;;;;2.17;1.20;;;;;;;;;;6204805;23;20278;-87
2023/12/12 10:29:39;;;;;;;1.93;1.13;;;;;;;;;;6209587;23;20203;-88
2023/12/12 10:37:50;;;;;;;2.03;1.80;;;;;;;;;;6202695;23;20201;-88
2023/12/12 10:40:21;;;;;;;1.27;1.27;;;;;;;;;;6208358;23;20271;-86
2023/12/12 10:42:53;;;;;;;1.73;1.63;;;;;;;;;;6213725;23;20196;-87
2023/12/12 10:45:21;;;;;;;1.50;1.40;;;;;;;;;;6222477;23;20188;-88
2023/12/12 10:47:53;;;;;;;1.77;1.70;;;;;;;;;;6232412;23;20602;-87
2023/12/12 10:50:23;;;;;;;3.47;1.87;;;;;;;;;;6230618;23;20191;-88
2023/12/12 10:53:03;;;;;;;3.70;1.30;;;;;;;;;;6210861;23;20670;-87
2023/12/12 10:55:35;;;;;;;1.07;1.07;;;;;;;;;;6211243;23;20216;-87
2023/12/12 10:58:06;;;;;;;0.90;0.90;;;;;;;;;;6209769;23;20748;-88
2023/12/12 11:00:45;;;;;;;3.17;1.40;;;;;;;;;;6210921;23;20768;-86
2023/12/12 11:03:14;;;;;;;5.40;1.50;;;;;;;;;;6210538;23;20292;-89
2023/12/12 11:05:46;;;;;;;1.80;1.60;;;;;;;;;;6210975;23;20302;-88
2023/12/12 11:08:15;;;;;;;3.80;2.33;;;;;;;;;;6210712;23;20272;-86
2023/12/12 11:10:49;;;;;;;3.20;2.07;;;;;;;;;;6204470;23;20234;-87
2023/12/12 11:13:45;;;;;;;;;;;;;;;;;;;;;
2023/12/12 11:16:15;;;;;;;15.57;5.53;;;;;;;;;;6183163;23;20244;-87
2023/12/12 11:18:49;;;;;;;3.57;3.03;;;;;;;;;;6208031;23;20307;-88
2023/12/12 11:21:35;;;;;;;9.00;2.00;;;;;;;;;;6212240;23;20230;-87
2023/12/12 11:24:39;;;;;;;4.30;1.67;;;;;;;;;;6210087;23;20697;-87
2023/12/12 11:27:19;;;;;;;2.07;1.87;;;;;;;;;;6194576;23;20207;-87
2023/12/12 11:29:58;;;;;;;4.50;1.73;;;;;;;;;;6212054;23;20201;-88
2023/12/12 11:32:43;;;;;;;4.53;2.20;;;;;;;;;;6210961;23;20225;-88
2023/12/12 11:39:00;;;;;;;4.43;1.90;;;;;;;;;;6069423;23;20186;-87
2023/12/12 11:41:41;;;;;;;;;;;;;;;;;;;;;
2023/12/12 11:44:51;;;;;;;;;;;;;;;;;;;;;
2023/12/12 11:47:27;;;;;;;2.07;1.87;;;;;;;;;;6088082;23;20172;-87
2023/12/12 11:53:02;;;;;;;7.03;2.37;;;;;;;;;;5972901;24;20449;-87
2023/12/12 11:55:42;;;;;;;3.27;2.00;;;;;;;;;;6086476;23;20267;-87
2023/12/12 11:58:24;;;;;;;3.83;2.00;;;;;;;;;;6144455;23;20243;-86
2023/12/12 12:03:52;;;;;;;2.53;1.40;;;;;;;;;;6173949;23;20176;-87
2023/12/12 12:06:45;;;;;;;4.63;1.73;;;;;;;;;;6208539;23;20172;-87
2023/12/12 12:09:20;;;;;;;2.13;1.97;;;;;;;;;;6208737;23;20167;-88
2023/12/12 12:11:52;;;;;;;1.77;1.67;;;;;;;;;;6210689;23;20281;-88
2023/12/12 12:14:27;;;;;;;2.30;1.60;;;;;;;;;;6211251;23;20237;-88
2023/12/12 12:17:17;;;;;;;12.87;2.53;;;;;;;;;;6209866;23;20163;-87
2023/12/12 12:20:02;;;;;;;1.97;1.87;;;;;;;;;;6212038;23;20540;-88
2023/12/12 12:31:15;;;;;;;3.70;2.03;;;;;;;;;;6212159;23;20273;-89
2023/12/12 12:33:46;;;;;;;5.03;1.60;;;;;;;;;;6213999;23;20171;-87
2023/12/12 12:36:41;;;;;;;1.77;1.67;;;;;;;;;;6210430;23;20235;-88
2023/12/12 12:39:14;;;;;;;1.13;1.13;;;;;;;;;;6211375;23;20533;-87
2023/12/12 12:42:14;;;;;;;2.13;1.40;;;;;;;;;;6211735;23;20174;-88
2023/12/12 12:44:52;;;;;;;1.77;1.67;;;;;;;;;;6213536;23;20178;-85
2023/12/12 12:47:26;;;;;;;1.77;1.67;;;;;;;;;;6210605;23;20174;-86
2023/12/12 12:49:56;;;;;;;3.13;1.80;;;;;;;;;;6212660;23;20169;-87
2023/12/12 12:52:25;;;;;;;7.17;1.50;;;;;;;;;;6209796;23;20209;-86
2023/12/12 12:54:57;;;;;;;1.93;1.70;;;;;;;;;;6212785;23;20205;-88
2023/12/12 12:57:26;;;;;;;1.73;1.63;;;;;;;;;;6216620;23;20231;-87
2023/12/12 12:59:56;;;;;;;9.60;1.90;;;;;;;;;;6216357;23;20662;-88
2023/12/12 13:02:28;;;;;;;1.83;1.57;;;;;;;;;;6215784;23;20610;-87
2023/12/12 13:05:01;;;;;;;4.63;2.00;;;;;;;;;;6214956;23;20181;-86
2023/12/12 13:07:32;;;;;;;1.60;1.50;;;;;;;;;;6219811;23;20163;-86
2023/12/12 13:10:06;;;;;;;2.00;1.60;;;;;;;;;;6225842;23;20213;-87
2023/12/12 13:12:38;;;;;;;1.57;1.33;;;;;;;;;;6224165;23;20214;-86
2023/12/12 13:15:13;;;;;;;1.20;1.20;;;;;;;;;;6213486;23;20165;-88
2023/12/12 13:17:42;;;;;;;1.67;1.67;;;;;;;;;;6213858;23;20621;-89
2023/12/12 13:20:10;;;;;;;1.33;1.07;;;;;;;;;;6214197;23;20240;-89
2023/12/12 13:22:42;;;;;;;1.33;1.23;;;;;;;;;;6214592;23;20173;-88
2023/12/12 13:25:31;;;;;;;1.90;1.60;;;;;;;;;;6214247;23;20190;-89
2023/12/12 13:28:07;;;;;;;2.43;2.33;;;;;;;;;;6213259;23;20234;-87
2023/12/12 13:30:36;;;;;;;2.07;1.63;;;;;;;;;;6213510;23;20187;-87
2023/12/12 13:33:09;;;;;;;1.60;1.50;;;;;;;;;;6220161;23;20695;-88
2023/12/12 13:35:39;;;;;;;5.27;1.50;;;;;;;;;;6228880;23;20203;-87
2023/12/12 13:38:07;;;;;;;1.93;1.83;;;;;;;;;;6231199;23;20523;-87
2023/12/12 13:40:37;;;;;;;20.07;4.00;;;;;;;;;;6215075;23;20695;-87
2023/12/12 13:43:10;;;;;;;1.90;1.67;;;;;;;;;;6214688;23;20178;-87
2023/12/12 13:45:39;;;;;;;2.47;2.23;;;;;;;;;;6213500;23;20183;-89
2023/12/12 13:51:43;;;;;;;4.00;1.77;;;;;;;;;;6228706;22;20193;-87
2023/12/12 14:00:27;;;;;;;1.53;1.43;;;;;;;;;;6216332;22;20204;-87
2023/12/12 14:02:59;;;;;;;2.17;2.07;;;;;;;;;;6220749;23;20197;-87
2023/12/12 14:05:29;;;;;;;4.10;2.30;;;;;;;;;;6219740;23;20256;-88
2023/12/12 14:07:58;;;;;;;10.33;2.40;;;;;;;;;;6218444;23;20171;-87
2023/12/12 14:10:27;;;;;;;3.77;2.50;;;;;;;;;;6220065;23;20184;-86
2023/12/12 14:13:00;;;;;;;2.30;2.20;;;;;;;;;;6222032;23;20197;-87
2023/12/12 14:15:45;;;;;;;3.13;2.83;;;;;;;;;;6227625;23;20158;-88
2023/12/12 14:18:15;;;;;;;9.53;2.80;;;;;;;;;;6231012;23;20164;-86
2023/12/12 14:20:44;;;;;;;4.77;3.43;;;;;;;;;;6231810;23;20167;-87
2023/12/12 14:23:21;;;;;;;6.73;2.80;;;;;;;;;;6237337;22;20169;-88
2023/12/12 14:25:55;;;;;;;4.30;2.57;;;;;;;;;;6233914;23;20190;-87
2023/12/12 14:28:34;;;;;;;3.57;2.53;;;;;;;;;;6222819;23;20207;-87
2023/12/12 14:31:12;;;;;;;5.40;3.23;;;;;;;;;;6216420;23;20177;-88
2023/12/12 14:33:41;;;;;;;6.00;3.40;;;;;;;;;;6230127;23;20285;-87
2023/12/12 14:36:19;;;;;;;15.07;7.27;;;;;;;;;;6220873;23;20217;-88
2023/12/12 14:38:48;;;;;;;35.93;7.30;;;;;;;;;;6221501;23;20325;-88
2023/12/12 14:41:23;;;;;;;34.00;6.60;;;;;;;;;;6222243;22;20173;-89
2023/12/12 14:43:57;;;;;;;14.30;3.90;;;;;;;;;;6229391;23;20165;-88
2023/12/12 14:46:32;;;;;;;3.10;2.80;;;;;;;;;;6236600;23;20157;-87
2023/12/12 14:49:15;;;;;;;9.87;6.50;;;;;;;;;;6237101;23;20259;-87
2023/12/12 14:51:45;;;;;;;5.70;5.20;;;;;;;;;;6236802;22;20201;-86
2023/12/12 14:54:13;;;;;;;8.73;4.20;;;;;;;;;;6237807;22;20169;-88
2023/12/12 14:56:43;;;;;;;4.57;3.83;;;;;;;;;;6238591;22;20167;-88
2023/12/12 14:59:13;;;;;;;5.40;3.93;;;;;;;;;;6237639;22;20175;-87
2023/12/12 15:01:41;;;;;;;3.40;3.07;;;;;;;;;;6237313;22;20199;-88
2023/12/12 15:04:09;;;;;;;6.10;3.87;;;;;;;;;;6237979;22;20180;-87
2023/12/12 15:06:43;;;;;;;5.33;3.90;;;;;;;;;;6237387;22;20208;-87
2023/12/12 15:09:19;;;;;;;4.20;3.60;;;;;;;;;;6233439;23;20175;-87
2023/12/12 15:11:50;;;;;;;4.63;3.93;;;;;;;;;;6232914;23;20181;-87
2023/12/12 15:14:30;;;;;;;8.37;4.10;;;;;;;;;;6234382;23;20234;-89
2023/12/12 15:16:59;;;;;;;10.57;4.20;;;;;;;;;;6234191;23;20211;-88
2023/12/12 15:19:39;;;;;;;6.10;4.27;;;;;;;;;;6235669;23;20168;-89
2023/12/12 15:22:14;;;;;;;7.00;4.20;;;;;;;;;;6234553;22;20183;-87
2023/12/12 15:24:52;;;;;;;5.80;4.53;;;;;;;;;;6230514;23;20222;-87
2023/12/12 15:27:23;;;;;;;7.83;5.03;;;;;;;;;;6232910;23;20202;-88
2023/12/12 15:29:54;;;;;;;11.73;3.97;;;;;;;;;;6231970;23;20399;-87
2023/12/12 15:32:26;;;;;;;5.37;4.30;;;;;;;;;;6234746;22;20214;-89
2023/12/12 15:34:56;;;;;;;10.07;5.33;;;;;;;;;;6234411;23;20600;-89
2023/12/12 15:37:31;;;;;;;7.30;4.70;;;;;;;;;;6234176;22;20229;-88
2023/12/12 15:43:21;;;;;;;8.97;4.37;;;;;;;;;;6209753;23;20204;-88
2023/12/12 15:49:25;;;;;;;7.43;4.67;;;;;;;;;;6097725;23;20202;-88
2023/12/12 15:54:54;;;;;;;8.57;5.13;;;;;;;;;;6191287;23;20202;-87
2023/12/12 16:00:29;;;;;;;9.87;5.70;;;;;;;;;;5093440;27;20645;-85
2023/12/12 16:03:01;;;;;;;18.53;9.03;;;;;;;;;;5072726;28;20233;-86